WetterOnline ( https://www.wetteronline.de )

Wetter aktuell Tetenbüll

Aktuelles Wetter: St. Peter-Ording (11m)

6-stündlich | Neueste Meldungen
Ortszeit Temperatur Wetter
Mo, 15.07. 20:00 18.0° C wolkenlos
Mo, 15.07. 14:00 18.6° C bewölkt
Mo, 15.07. 8:00 16.2° C bewölkt
Mo, 15.07. 2:00 16.2° C leichter Regen
So, 14.07. 20:00 16.6° C Regen
So, 14.07. 14:00 19.1° C wolkig
So, 14.07. 8:00 15.8° C bedeckt
So, 14.07. 2:00 15.3° C bewölkt
Ortszeit Temperatur Wetter
Di, 16.07. 0:30 15.9° C bedeckt
Di, 16.07. 0:20 15.9° C bedeckt
Di, 16.07. 0:10 16.0° C bedeckt
Di, 16.07. 0:00 15.9° C bedeckt
Mo, 15.07. 23:50 15.9° C bedeckt
Mo, 15.07. 23:40 15.8° C bedeckt
Mo, 15.07. 23:30 15.9° C wolkig
Mo, 15.07. 23:00 15.9° C wolkig
Mo, 15.07. 22:30 16.1° C bewölkt
Mo, 15.07. 22:00 16.4° C bewölkt
Mo, 15.07. 21:30 16.9° C bewölkt
Ortszeit Relative Feuchte Sichtweite
Mo, 15.07. 20:00 71% 50 km
Mo, 15.07. 14:00 77% 30 km
Mo, 15.07. 8:00 89% 22 km
Mo, 15.07. 2:00 88% 18 km
So, 14.07. 20:00 80% 30 km
So, 14.07. 14:00 65% 45 km
So, 14.07. 8:00 80% 40 km
So, 14.07. 2:00 87% 45 km
Ortszeit Relative Feuchte Sichtweite
Di, 16.07. 0:30 90% 35 km
Di, 16.07. 0:20 90% -
Di, 16.07. 0:10 90% -
Di, 16.07. 0:00 92% 35 km
Mo, 15.07. 23:50 92% -
Mo, 15.07. 23:40 91% -
Mo, 15.07. 23:30 91% 35 km
Mo, 15.07. 23:00 88% 45 km
Mo, 15.07. 22:30 86% 40 km
Mo, 15.07. 22:00 86% 40 km
Mo, 15.07. 21:30 83% 55 km
Ortszeit Niederschlagsmenge Niederschlagsart
Mo, 15.07. 20:00 0.0 l/m2 in 12 Std. -
Mo, 15.07. 14:00 0.0 l/m2 in 6 Std. -
Mo, 15.07. 8:00 7 l/m2 in 12 Std. Regen
Mo, 15.07. 2:00 3 l/m2 in 6 Std. Regen
So, 14.07. 20:00 4 l/m2 in 12 Std. Regen
So, 14.07. 14:00 0.0 l/m2 in 6 Std. -
So, 14.07. 8:00 4 l/m2 in 12 Std. -
So, 14.07. 2:00 4 l/m2 in 6 Std. Regen
Ortszeit Niederschlagsmenge Niederschlagsart
Di, 16.07. 0:30 0.0 l/m2 in 30 Min -
Di, 16.07. 0:20 keine Meldung -
Di, 16.07. 0:10 keine Meldung -
Di, 16.07. 0:00 0.0 l/m2 in 1 Std. -
Mo, 15.07. 23:50 keine Meldung -
Mo, 15.07. 23:40 keine Meldung -
Mo, 15.07. 23:30 0.0 l/m2 in 30 Min -
Mo, 15.07. 23:00 0.0 l/m2 in 1 Std. -
Mo, 15.07. 22:30 0.0 l/m2 in 30 Min -
Mo, 15.07. 22:00 0.0 l/m2 in 1 Std. -
Mo, 15.07. 21:30 0.0 l/m2 in 30 Min -
Ortszeit Stärke Spitze Richtung
km/h Bft. km/h Grad Sektor
Mo, 15.07. 20:00 7 2 36 20° N
Mo, 15.07. 14:00 31 5 50 260° W
Mo, 15.07. 8:00 35 5 54 240° SW
Mo, 15.07. 2:00 35 5 54 230° SW
So, 14.07. 20:00 32 5 65 240° SW
So, 14.07. 14:00 28 4 48 200° S
So, 14.07. 8:00 28 4 48 210° SW
So, 14.07. 2:00 33 5 48 230° SW
Ortszeit Stärke Spitze Richtung
km/h Bft. km/h Grad Sektor
Di, 16.07. 0:30 13 3 19 70° O
Di, 16.07. 0:20 13 3 - 70° O
Di, 16.07. 0:10 14 3 - 70° O
Di, 16.07. 0:00 11 2 18 70° O
Mo, 15.07. 23:50 11 2 - 70° O
Mo, 15.07. 23:40 13 3 - 70° O
Mo, 15.07. 23:30 11 2 14 60° NO
Mo, 15.07. 23:00 9 2 13 60° NO
Mo, 15.07. 22:30 9 2 13 70° O
Mo, 15.07. 22:00 6 1 13 60° NO
Mo, 15.07. 21:30 7 2 13 60° NO
Ortszeit Untergrenze Bedeckung Gattung
total tief tief mittel hoch
Mo, 15.07. 20:00 - 0/8 0/8 - - -
Mo, 15.07. 14:00 510 m 7/8 7/8 - - -
Mo, 15.07. 8:00 450 m 8/8 7/8 - - -
Mo, 15.07. 2:00 540 m 7/8 7/8 - - -
So, 14.07. 20:00 2100 m 8/8 8/8 - - -
So, 14.07. 14:00 1470 m 8/8 3/8 - - -
So, 14.07. 8:00 540 m 8/8 8/8 - - -
So, 14.07. 2:00 420 m 7/8 7/8 - - -
Ortszeit Bedeckungsgrad in Achtel und Wolkenuntergrenze
Di, 16.07. 0:30 2(3600m) 8(5100m)
Di, 16.07. 0:20 2(3600m) 8(5100m)
Di, 16.07. 0:10 8
Di, 16.07. 0:00 7(4800m) 8(6000m)
Mo, 15.07. 23:50 7(4800m) 8(6000m)
Mo, 15.07. 23:40 8
Mo, 15.07. 23:30 5(6000m) 7(7800m)
Mo, 15.07. 23:00 3(5400m) 8(8100m) 8(9000m)
Mo, 15.07. 22:30 7(5400m) 8(8700m) 8(9000m)
Mo, 15.07. 22:00 6(5700m) 8(9000m)
Mo, 15.07. 21:30 6(6000m) 7(6600m) 8(10500m)
Ortszeit Luftdruck NN (hPa) Tendenz (hPa in 3 Std.)
Mo, 15.07. 20:00 1012 - 0,8
Mo, 15.07. 14:00 1013 + 1,0
Mo, 15.07. 8:00 1011 + 0,8
Mo, 15.07. 2:00 1010 + 0,1
So, 14.07. 20:00 1010 + 0,3
So, 14.07. 14:00 1010 - 0,1
So, 14.07. 8:00 1010 + 0,4
So, 14.07. 2:00 1010 + 0,3
Ortszeit Luftdruck NN (hPa) Tendenz (hPa in 3 Std.)
Di, 16.07. 0:30 1011 - 0,9
Di, 16.07. 0:20 1011 keine Meldung
Di, 16.07. 0:10 1011 keine Meldung
Di, 16.07. 0:00 1011 - 0,7
Mo, 15.07. 23:50 1011 keine Meldung
Mo, 15.07. 23:40 1011 keine Meldung
Mo, 15.07. 23:30 1011 - 0,8
Mo, 15.07. 23:00 1011 - 0,8
Mo, 15.07. 22:30 1012 - 0,5
Mo, 15.07. 22:00 1012 - 0,3
Mo, 15.07. 21:30 1012 - 0,6
Ortszeit Schneehöhe (cm)
Mo, 15.07. 20:00 0
Mo, 15.07. 14:00 0
Mo, 15.07. 8:00 0
Mo, 15.07. 2:00 0
So, 14.07. 20:00 0
So, 14.07. 14:00 0
So, 14.07. 8:00 0
So, 14.07. 2:00 0
Ortszeit Schneehöhe (cm)
Di, 16.07. 0:30 0
Di, 16.07. 0:20 0
Di, 16.07. 0:10 -
Di, 16.07. 0:00 0
Mo, 15.07. 23:50 0
Mo, 15.07. 23:40 -
Mo, 15.07. 23:30 0
Mo, 15.07. 23:00 0
Mo, 15.07. 22:30 0
Mo, 15.07. 22:00 0
Mo, 15.07. 21:30 0
Link zu dieser Seite / Seite empfehlen

Das Wetter in ...